This is the latest recevied weather packets stored in our database for station/object KD0RIH. If no packets are shown the sender has not sent any weather packets the latest 10 day(s).
| Time | Temp. | Humidity | Pressure | Rain* | Wind** | Luminosity | Snow |
|---|---|---|---|---|---|---|---|
| 1777844475 | 27.22° C | 31% | 1009.1 hPa | 0 mm | - | 366 W/m² | - |
| 1777844174 | 26.67° C | 30% | 1008.9 hPa | 0 mm | - | 446 W/m² | - |
| 1777843870 | 26.11° C | 33% | 1009.1 hPa | 0 mm | - | 431 W/m² | - |
| 1777843568 | 26.11° C | 32% | 1009 hPa | 0 mm | - | 360 W/m² | - |
| 1777843265 | 27.22° C | 31% | 1008.9 hPa | 0 mm | - | 351 W/m² | - |
| 1777842962 | 26.67° C | 32% | 1009.5 hPa | 0 mm | - | 542 W/m² | - |
| 1777842657 | 27.78° C | 30% | 1009.4 hPa | 0 mm | - | 481 W/m² | - |
| 1777842354 | 28.89° C | 29% | 1009.5 hPa | 0 mm | - | 251 W/m² | - |
| 1777842050 | 28.33° C | 29% | 1009.6 hPa | 0 mm | - | 675 W/m² | - |
| 1777841747 | 28.89° C | 29% | 1009.8 hPa | 0 mm | - | 653 W/m² | - |
| 1777841443 | 27.78° C | 30% | 1009.6 hPa | 0 mm | - | 607 W/m² | - |
| 1777841140 | 27.78° C | 30% | 1009.7 hPa | 0 mm | - | 630 W/m² | - |
| 1777840838 | 27.22° C | 30% | 1009.8 hPa | 0 mm | - | 694 W/m² | - |
| 1777840535 | 25.56° C | 33% | 1009.7 hPa | 0 mm | - | 700 W/m² | - |
| 1777840232 | 25.56° C | 32% | 1010.1 hPa | 0 mm | - | 708 W/m² | - |
| 1777839930 | 26.11° C | 32% | 1009.9 hPa | 0 mm | - | 717 W/m² | - |
| 1777839627 | 26.67° C | 31% | 1009.9 hPa | 0 mm | - | 632 W/m² | - |
| 1777839325 | 25.56° C | 33% | 1010.1 hPa | 0 mm | - | 556 W/m² | - |
| 1777839022 | 26.11° C | 32% | 1010.1 hPa | 0 mm | - | 507 W/m² | - |
| 1777838718 | 26.67° C | 31% | 1010 hPa | 0 mm | - | 629 W/m² | - |
| 1777838415 | 27.22° C | 30% | 1010.3 hPa | 0 mm | - | 492 W/m² | - |
| 1777838113 | 26.67° C | 30% | 1010.3 hPa | 0 mm | - | 627 W/m² | - |
| 1777837809 | 25.56° C | 32% | 1010.2 hPa | 0 mm | - | 687 W/m² | - |
| 1777837506 | 27.22° C | 33% | 1010.3 hPa | 0 mm | - | 675 W/m² | - |
| 1777837201 | 27.78° C | 30% | 1010.4 hPa | 0 mm | - | 484 W/m² | - |
* Rain latest hour (hover to see other rain measurements)
** Current wind speed in m/s (hover to see current wind gust speed)